sensor_id;sensor_type;location;lat;lon;timestamp;temperature;humidity
7117;DHT22;3600;48.568;7.870;2022-12-24T00:01:50;12.40;99.90
7117;DHT22;3600;48.568;7.870;2022-12-24T00:04:16;12.40;99.90
7117;DHT22;3600;48.568;7.870;2022-12-24T00:06:43;12.40;99.90
7117;DHT22;3600;48.568;7.870;2022-12-24T00:09:10;12.40;99.90
7117;DHT22;3600;48.568;7.870;2022-12-24T00:11:37;12.40;99.90
7117;DHT22;3600;48.568;7.870;2022-12-24T00:14:03;12.40;99.90
7117;DHT22;3600;48.568;7.870;2022-12-24T00:16:30;12.40;99.90
7117;DHT22;3600;48.568;7.870;2022-12-24T00:18:57;12.40;99.90
7117;DHT22;3600;48.568;7.870;2022-12-24T00:21:24;12.40;99.90
7117;DHT22;3600;48.568;7.870;2022-12-24T00:23:50;12.30;99.90
7117;DHT22;3600;48.568;7.870;2022-12-24T00:26:17;12.30;99.90
7117;DHT22;3600;48.568;7.870;2022-12-24T00:28:44;12.20;99.90
7117;DHT22;3600;48.568;7.870;2022-12-24T00:31:13;12.20;99.90
7117;DHT22;3600;48.568;7.870;2022-12-24T00:33:41;12.20;99.90
7117;DHT22;3600;48.568;7.870;2022-12-24T00:36:08;12.20;99.90
7117;DHT22;3600;48.568;7.870;2022-12-24T00:38:35;12.10;99.90
7117;DHT22;3600;48.568;7.870;2022-12-24T00:41:04;12.10;99.90
7117;DHT22;3600;48.568;7.870;2022-12-24T00:43:31;12.10;99.90
7117;DHT22;3600;48.568;7.870;2022-12-24T00:45:58;12.10;99.90
7117;DHT22;3600;48.568;7.870;2022-12-24T00:48:25;12.10;99.90
7117;DHT22;3600;48.568;7.870;2022-12-24T00:50:52;12.10;99.90
7117;DHT22;3600;48.568;7.870;2022-12-24T00:53:18;12.20;99.90
7117;DHT22;3600;48.568;7.870;2022-12-24T00:55:45;12.20;99.90
7117;DHT22;3600;48.568;7.870;2022-12-24T00:58:12;12.30;99.90
7117;DHT22;3600;48.568;7.870;2022-12-24T01:00:39;12.30;99.90
7117;DHT22;3600;48.568;7.870;2022-12-24T01:03:06;12.30;99.90
7117;DHT22;3600;48.568;7.870;2022-12-24T01:05:32;12.30;99.90
7117;DHT22;3600;48.568;7.870;2022-12-24T01:07:59;12.30;99.90
7117;DHT22;3600;48.568;7.870;2022-12-24T01:10:26;12.30;99.90
7117;DHT22;3600;48.568;7.870;2022-12-24T01:12:53;12.40;99.90
7117;DHT22;3600;48.568;7.870;2022-12-24T01:15:19;12.40;99.90
7117;DHT22;3600;48.568;7.870;2022-12-24T01:17:46;12.40;99.90
7117;DHT22;3600;48.568;7.870;2022-12-24T01:20:15;12.40;99.90
7117;DHT22;3600;48.568;7.870;2022-12-24T01:22:42;12.40;99.90
7117;DHT22;3600;48.568;7.870;2022-12-24T01:25:09;12.40;99.90
7117;DHT22;3600;48.568;7.870;2022-12-24T01:27:36;12.40;99.90
7117;DHT22;3600;48.568;7.870;2022-12-24T01:30:05;12.30;99.90
7117;DHT22;3600;48.568;7.870;2022-12-24T01:32:33;12.30;99.90
7117;DHT22;3600;48.568;7.870;2022-12-24T01:34:59;12.30;99.90
7117;DHT22;3600;48.568;7.870;2022-12-24T01:37:26;12.30;99.90
7117;DHT22;3600;48.568;7.870;2022-12-24T01:39:53;12.30;99.90
7117;DHT22;3600;48.568;7.870;2022-12-24T01:42:47;12.30;99.90
7117;DHT22;3600;48.568;7.870;2022-12-24T01:45:42;12.30;99.90
7117;DHT22;3600;48.568;7.870;2022-12-24T01:50:56;12.20;99.90
7117;DHT22;3600;48.568;7.870;2022-12-24T01:53:24;12.30;99.90
7117;DHT22;3600;48.568;7.870;2022-12-24T01:55:51;12.30;99.90
7117;DHT22;3600;48.568;7.870;2022-12-24T01:58:19;12.30;99.90
7117;DHT22;3600;48.568;7.870;2022-12-24T02:00:47;12.20;99.90
7117;DHT22;3600;48.568;7.870;2022-12-24T02:03:14;12.20;99.90
7117;DHT22;3600;48.568;7.870;2022-12-24T02:05:53;12.20;99.90
7117;DHT22;3600;48.568;7.870;2022-12-24T02:08:21;12.20;99.90
7117;DHT22;3600;48.568;7.870;2022-12-24T02:10:49;12.20;99.90
7117;DHT22;3600;48.568;7.870;2022-12-24T02:13:18;12.20;99.90
7117;DHT22;3600;48.568;7.870;2022-12-24T02:32:32;12.10;99.90
7117;DHT22;3600;48.568;7.870;2022-12-24T02:35:08;12.10;99.90
7117;DHT22;3600;48.568;7.870;2022-12-24T02:37:39;12.10;99.90
7117;DHT22;3600;48.568;7.870;2022-12-24T02:40:10;12.10;99.90
7117;DHT22;3600;48.568;7.870;2022-12-24T02:42:45;12.00;99.90
7117;DHT22;3600;48.568;7.870;2022-12-24T02:45:17;12.00;99.90
7117;DHT22;3600;48.568;7.870;2022-12-24T02:47:44;12.00;99.90
7117;DHT22;3600;48.568;7.870;2022-12-24T02:50:14;12.00;99.90
7117;DHT22;3600;48.568;7.870;2022-12-24T02:52:43;12.00;99.90
7117;DHT22;3600;48.568;7.870;2022-12-24T02:55:17;12.00;99.90
7117;DHT22;3600;48.568;7.870;2022-12-24T02:58:06;12.10;99.90
7117;DHT22;3600;48.568;7.870;2022-12-24T03:01:03;12.10;99.90
7117;DHT22;3600;48.568;7.870;2022-12-24T03:06:43;12.10;99.90
7117;DHT22;3600;48.568;7.870;2022-12-24T03:09:36;12.10;99.90
7117;DHT22;3600;48.568;7.870;2022-12-24T03:12:09;12.10;99.90
7117;DHT22;3600;48.568;7.870;2022-12-24T03:14:39;12.10;99.90
7117;DHT22;3600;48.568;7.870;2022-12-24T03:17:08;12.20;99.90
7117;DHT22;3600;48.568;7.870;2022-12-24T03:19:35;12.20;99.90
7117;DHT22;3600;48.568;7.870;2022-12-24T03:22:07;12.20;99.90
7117;DHT22;3600;48.568;7.870;2022-12-24T03:24:35;12.20;99.90
7117;DHT22;3600;48.568;7.870;2022-12-24T03:27:04;12.20;99.90
7117;DHT22;3600;48.568;7.870;2022-12-24T03:29:31;12.20;99.90
7117;DHT22;3600;48.568;7.870;2022-12-24T03:32:00;12.20;99.90
7117;DHT22;3600;48.568;7.870;2022-12-24T03:34:28;12.20;99.90
7117;DHT22;3600;48.568;7.870;2022-12-24T03:36:55;12.20;99.90
7117;DHT22;3600;48.568;7.870;2022-12-24T03:39:22;12.20;99.90
7117;DHT22;3600;48.568;7.870;2022-12-24T03:41:49;12.20;99.90
7117;DHT22;3600;48.568;7.870;2022-12-24T03:44:16;12.20;99.90
7117;DHT22;3600;48.568;7.870;2022-12-24T03:46:43;12.20;99.90
7117;DHT22;3600;48.568;7.870;2022-12-24T03:49:09;12.20;99.90
7117;DHT22;3600;48.568;7.870;2022-12-24T03:51:36;12.20;99.90
7117;DHT22;3600;48.568;7.870;2022-12-24T03:54:03;12.20;99.90
7117;DHT22;3600;48.568;7.870;2022-12-24T03:56:30;12.20;99.90
7117;DHT22;3600;48.568;7.870;2022-12-24T03:58:56;12.20;99.90
7117;DHT22;3600;48.568;7.870;2022-12-24T04:01:23;12.20;99.90
7117;DHT22;3600;48.568;7.870;2022-12-24T04:03:50;12.20;99.90
7117;DHT22;3600;48.568;7.870;2022-12-24T04:06:17;12.30;99.90
7117;DHT22;3600;48.568;7.870;2022-12-24T04:08:44;12.20;99.90
7117;DHT22;3600;48.568;7.870;2022-12-24T04:11:14;12.20;99.90
7117;DHT22;3600;48.568;7.870;2022-12-24T04:13:41;12.20;99.90
7117;DHT22;3600;48.568;7.870;2022-12-24T04:16:13;12.20;99.90
7117;DHT22;3600;48.568;7.870;2022-12-24T04:18:41;12.10;99.90
7117;DHT22;3600;48.568;7.870;2022-12-24T04:21:09;12.10;99.90
7117;DHT22;3600;48.568;7.870;2022-12-24T04:23:38;12.10;99.90
7117;DHT22;3600;48.568;7.870;2022-12-24T04:26:07;12.10;99.90
7117;DHT22;3600;48.568;7.870;2022-12-24T04:28:37;12.10;99.90
7117;DHT22;3600;48.568;7.870;2022-12-24T04:31:08;12.10;99.90
7117;DHT22;3600;48.568;7.870;2022-12-24T04:33:36;12.00;99.90
7117;DHT22;3600;48.568;7.870;2022-12-24T04:36:04;12.00;99.90
7117;DHT22;3600;48.568;7.870;2022-12-24T04:38:31;12.00;99.90
7117;DHT22;3600;48.568;7.870;2022-12-24T04:41:06;12.00;99.90
7117;DHT22;3600;48.568;7.870;2022-12-24T04:43:34;12.00;99.90
7117;DHT22;3600;48.568;7.870;2022-12-24T04:46:13;12.00;99.90
7117;DHT22;3600;48.568;7.870;2022-12-24T04:48:45;12.00;99.90
7117;DHT22;3600;48.568;7.870;2022-12-24T04:51:13;12.00;99.90
7117;DHT22;3600;48.568;7.870;2022-12-24T04:53:42;12.00;99.90
7117;DHT22;3600;48.568;7.870;2022-12-24T04:56:15;12.00;99.90
7117;DHT22;3600;48.568;7.870;2022-12-24T04:58:43;12.00;99.90
7117;DHT22;3600;48.568;7.870;2022-12-24T05:01:37;12.00;99.90
7117;DHT22;3600;48.568;7.870;2022-12-24T05:04:04;12.00;99.90
7117;DHT22;3600;48.568;7.870;2022-12-24T05:06:32;11.90;99.90
7117;DHT22;3600;48.568;7.870;2022-12-24T05:08:59;11.90;99.90
7117;DHT22;3600;48.568;7.870;2022-12-24T05:11:27;11.90;99.90
7117;DHT22;3600;48.568;7.870;2022-12-24T05:13:54;11.90;99.90
7117;DHT22;3600;48.568;7.870;2022-12-24T05:16:22;11.90;99.90
7117;DHT22;3600;48.568;7.870;2022-12-24T05:18:50;11.90;99.90
7117;DHT22;3600;48.568;7.870;2022-12-24T05:21:20;11.90;99.90
7117;DHT22;3600;48.568;7.870;2022-12-24T05:23:47;11.90;99.90
7117;DHT22;3600;48.568;7.870;2022-12-24T05:26:43;11.90;99.90
7117;DHT22;3600;48.568;7.870;2022-12-24T05:29:12;11.90;99.90
7117;DHT22;3600;48.568;7.870;2022-12-24T05:31:39;11.90;99.90
7117;DHT22;3600;48.568;7.870;2022-12-24T05:34:07;11.90;99.90
7117;DHT22;3600;48.568;7.870;2022-12-24T05:36:34;11.90;99.90
7117;DHT22;3600;48.568;7.870;2022-12-24T05:39:02;11.90;99.90
7117;DHT22;3600;48.568;7.870;2022-12-24T05:41:35;11.90;99.90
7117;DHT22;3600;48.568;7.870;2022-12-24T05:44:03;11.90;99.90
7117;DHT22;3600;48.568;7.870;2022-12-24T05:46:30;11.90;99.90
7117;DHT22;3600;48.568;7.870;2022-12-24T05:48:58;11.90;99.90
7117;DHT22;3600;48.568;7.870;2022-12-24T05:51:25;11.90;99.90
7117;DHT22;3600;48.568;7.870;2022-12-24T05:53:52;11.90;99.90
7117;DHT22;3600;48.568;7.870;2022-12-24T05:56:21;11.90;99.90
7117;DHT22;3600;48.568;7.870;2022-12-24T05:58:49;11.90;99.90
7117;DHT22;3600;48.568;7.870;2022-12-24T06:01:16;11.90;99.90
7117;DHT22;3600;48.568;7.870;2022-12-24T06:03:43;11.90;99.90
7117;DHT22;3600;48.568;7.870;2022-12-24T06:06:16;11.90;99.90
7117;DHT22;3600;48.568;7.870;2022-12-24T06:08:45;11.80;99.90
7117;DHT22;3600;48.568;7.870;2022-12-24T06:11:14;11.80;99.90
7117;DHT22;3600;48.568;7.870;2022-12-24T06:13:41;11.90;99.90
7117;DHT22;3600;48.568;7.870;2022-12-24T06:16:12;11.80;99.90
7117;DHT22;3600;48.568;7.870;2022-12-24T06:18:40;11.80;99.90
7117;DHT22;3600;48.568;7.870;2022-12-24T06:21:07;11.80;99.90
7117;DHT22;3600;48.568;7.870;2022-12-24T06:23:36;11.70;99.90
7117;DHT22;3600;48.568;7.870;2022-12-24T06:26:04;11.70;99.90
7117;DHT22;3600;48.568;7.870;2022-12-24T06:28:33;11.70;99.90
7117;DHT22;3600;48.568;7.870;2022-12-24T06:31:02;11.60;99.90
7117;DHT22;3600;48.568;7.870;2022-12-24T06:33:31;11.60;99.90
7117;DHT22;3600;48.568;7.870;2022-12-24T06:35:58;11.60;99.90
7117;DHT22;3600;48.568;7.870;2022-12-24T06:38:26;11.60;99.90
7117;DHT22;3600;48.568;7.870;2022-12-24T06:40:55;11.60;99.90
7117;DHT22;3600;48.568;7.870;2022-12-24T06:43:22;11.50;99.90
7117;DHT22;3600;48.568;7.870;2022-12-24T06:45:49;11.60;99.90
7117;DHT22;3600;48.568;7.870;2022-12-24T06:48:16;11.60;99.90
7117;DHT22;3600;48.568;7.870;2022-12-24T06:50:44;11.60;99.90
7117;DHT22;3600;48.568;7.870;2022-12-24T06:53:11;11.60;99.90
7117;DHT22;3600;48.568;7.870;2022-12-24T06:55:38;11.60;99.90
7117;DHT22;3600;48.568;7.870;2022-12-24T06:58:05;11.60;99.90
7117;DHT22;3600;48.568;7.870;2022-12-24T07:00:32;11.60;99.90
7117;DHT22;3600;48.568;7.870;2022-12-24T07:02:59;11.60;99.90
7117;DHT22;3600;48.568;7.870;2022-12-24T07:05:26;11.60;99.90
7117;DHT22;3600;48.568;7.870;2022-12-24T07:07:52;11.70;99.90
7117;DHT22;3600;48.568;7.870;2022-12-24T07:10:19;11.60;99.90
7117;DHT22;3600;48.568;7.870;2022-12-24T07:12:47;11.70;99.90
7117;DHT22;3600;48.568;7.870;2022-12-24T07:15:15;11.70;99.90
7117;DHT22;3600;48.568;7.870;2022-12-24T07:17:42;11.70;99.90
7117;DHT22;3600;48.568;7.870;2022-12-24T07:20:11;11.70;99.90
7117;DHT22;3600;48.568;7.870;2022-12-24T07:22:40;11.70;99.90
7117;DHT22;3600;48.568;7.870;2022-12-24T07:25:07;11.60;99.90
7117;DHT22;3600;48.568;7.870;2022-12-24T07:27:34;11.60;99.90
7117;DHT22;3600;48.568;7.870;2022-12-24T07:30:01;11.70;99.90
7117;DHT22;3600;48.568;7.870;2022-12-24T07:32:28;11.60;99.90
7117;DHT22;3600;48.568;7.870;2022-12-24T07:34:55;11.70;99.90
7117;DHT22;3600;48.568;7.870;2022-12-24T07:37:21;11.70;99.90
7117;DHT22;3600;48.568;7.870;2022-12-24T07:39:48;11.60;99.90
7117;DHT22;3600;48.568;7.870;2022-12-24T07:42:15;11.60;99.90
7117;DHT22;3600;48.568;7.870;2022-12-24T07:44:42;11.60;99.90
7117;DHT22;3600;48.568;7.870;2022-12-24T07:47:08;11.60;99.90
7117;DHT22;3600;48.568;7.870;2022-12-24T07:49:35;11.60;99.90
7117;DHT22;3600;48.568;7.870;2022-12-24T07:52:02;11.60;99.90
7117;DHT22;3600;48.568;7.870;2022-12-24T07:54:29;11.60;99.90
7117;DHT22;3600;48.568;7.870;2022-12-24T07:56:56;11.60;99.90
7117;DHT22;3600;48.568;7.870;2022-12-24T07:59:23;11.70;99.90
7117;DHT22;3600;48.568;7.870;2022-12-24T08:01:49;11.70;99.90
7117;DHT22;3600;48.568;7.870;2022-12-24T08:04:16;11.70;99.90
7117;DHT22;3600;48.568;7.870;2022-12-24T08:06:43;11.70;99.90
7117;DHT22;3600;48.568;7.870;2022-12-24T08:09:10;11.70;99.90
7117;DHT22;3600;48.568;7.870;2022-12-24T08:11:36;11.70;99.90
7117;DHT22;3600;48.568;7.870;2022-12-24T08:14:03;11.60;99.90
7117;DHT22;3600;48.568;7.870;2022-12-24T08:16:30;11.60;99.90
7117;DHT22;3600;48.568;7.870;2022-12-24T08:18:57;11.60;99.90
7117;DHT22;3600;48.568;7.870;2022-12-24T08:21:23;11.60;99.90
7117;DHT22;3600;48.568;7.870;2022-12-24T08:23:50;11.60;99.90
7117;DHT22;3600;48.568;7.870;2022-12-24T08:26:17;11.60;99.90
7117;DHT22;3600;48.568;7.870;2022-12-24T08:28:43;11.60;99.90
7117;DHT22;3600;48.568;7.870;2022-12-24T08:31:10;11.60;99.90
7117;DHT22;3600;48.568;7.870;2022-12-24T08:33:37;11.60;99.90
7117;DHT22;3600;48.568;7.870;2022-12-24T08:36:04;11.60;99.90
7117;DHT22;3600;48.568;7.870;2022-12-24T08:38:30;11.60;99.90
7117;DHT22;3600;48.568;7.870;2022-12-24T08:40:57;11.60;99.90
7117;DHT22;3600;48.568;7.870;2022-12-24T08:43:24;11.60;99.90
7117;DHT22;3600;48.568;7.870;2022-12-24T08:45:52;11.60;99.90
7117;DHT22;3600;48.568;7.870;2022-12-24T08:48:19;11.60;99.90
7117;DHT22;3600;48.568;7.870;2022-12-24T08:50:45;11.60;99.90
7117;DHT22;3600;48.568;7.870;2022-12-24T08:53:12;11.60;99.90
7117;DHT22;3600;48.568;7.870;2022-12-24T08:55:39;11.60;99.90
7117;DHT22;3600;48.568;7.870;2022-12-24T08:58:06;11.60;99.90
7117;DHT22;3600;48.568;7.870;2022-12-24T09:00:32;11.60;99.90
7117;DHT22;3600;48.568;7.870;2022-12-24T09:02:59;11.60;99.90
7117;DHT22;3600;48.568;7.870;2022-12-24T09:05:26;11.60;99.90
7117;DHT22;3600;48.568;7.870;2022-12-24T09:07:53;11.50;99.90
7117;DHT22;3600;48.568;7.870;2022-12-24T09:10:20;11.50;99.90
7117;DHT22;3600;48.568;7.870;2022-12-24T09:12:47;11.60;99.90
7117;DHT22;3600;48.568;7.870;2022-12-24T09:15:14;11.50;99.90
7117;DHT22;3600;48.568;7.870;2022-12-24T09:17:41;11.60;99.90
7117;DHT22;3600;48.568;7.870;2022-12-24T09:20:08;11.60;99.90
7117;DHT22;3600;48.568;7.870;2022-12-24T09:22:37;11.60;99.90
7117;DHT22;3600;48.568;7.870;2022-12-24T09:25:04;11.60;99.90
7117;DHT22;3600;48.568;7.870;2022-12-24T09:27:32;11.60;99.90
7117;DHT22;3600;48.568;7.870;2022-12-24T09:29:58;11.60;99.90
7117;DHT22;3600;48.568;7.870;2022-12-24T09:32:25;11.60;99.90
7117;DHT22;3600;48.568;7.870;2022-12-24T09:34:52;11.60;99.90
7117;DHT22;3600;48.568;7.870;2022-12-24T09:37:19;11.50;99.90
7117;DHT22;3600;48.568;7.870;2022-12-24T09:39:46;11.50;99.90
7117;DHT22;3600;48.568;7.870;2022-12-24T09:47:38;11.40;99.90
7117;DHT22;3600;48.568;7.870;2022-12-24T09:50:25;11.40;99.90
7117;DHT22;3600;48.568;7.870;2022-12-24T09:52:54;11.40;99.90
7117;DHT22;3600;48.568;7.870;2022-12-24T09:55:36;11.40;99.90
7117;DHT22;3600;48.568;7.870;2022-12-24T09:58:15;11.40;99.90
7117;DHT22;3600;48.568;7.870;2022-12-24T10:00:43;11.40;99.90
7117;DHT22;3600;48.568;7.870;2022-12-24T10:03:16;11.50;99.90
7117;DHT22;3600;48.568;7.870;2022-12-24T10:14:54;11.60;99.90
7117;DHT22;3600;48.568;7.870;2022-12-24T10:17:32;11.60;99.90
7117;DHT22;3600;48.568;7.870;2022-12-24T10:23:01;11.70;99.90
7117;DHT22;3600;48.568;7.870;2022-12-24T10:28:37;11.70;99.90
7117;DHT22;3600;48.568;7.870;2022-12-24T10:31:06;11.80;99.90
7117;DHT22;3600;48.568;7.870;2022-12-24T10:36:09;11.80;99.90
7117;DHT22;3600;48.568;7.870;2022-12-24T10:38:38;11.90;99.90
7117;DHT22;3600;48.568;7.870;2022-12-24T10:41:05;11.90;99.90
7117;DHT22;3600;48.568;7.870;2022-12-24T10:43:34;12.00;99.90
7117;DHT22;3600;48.568;7.870;2022-12-24T10:46:05;12.00;99.90
7117;DHT22;3600;48.568;7.870;2022-12-24T10:48:44;12.00;99.90
7117;DHT22;3600;48.568;7.870;2022-12-24T10:51:33;12.10;99.90
7117;DHT22;3600;48.568;7.870;2022-12-24T10:54:13;12.10;99.90
7117;DHT22;3600;48.568;7.870;2022-12-24T10:56:59;12.20;99.90
7117;DHT22;3600;48.568;7.870;2022-12-24T10:59:29;12.20;99.90
7117;DHT22;3600;48.568;7.870;2022-12-24T11:02:00;12.20;99.90
7117;DHT22;3600;48.568;7.870;2022-12-24T11:04:29;12.30;99.90
7117;DHT22;3600;48.568;7.870;2022-12-24T11:11:59;12.40;99.90
7117;DHT22;3600;48.568;7.870;2022-12-24T11:14:36;12.40;99.90
7117;DHT22;3600;48.568;7.870;2022-12-24T11:17:04;12.40;99.90
7117;DHT22;3600;48.568;7.870;2022-12-24T11:19:37;12.40;99.90
7117;DHT22;3600;48.568;7.870;2022-12-24T11:22:07;12.40;99.90
7117;DHT22;3600;48.568;7.870;2022-12-24T11:24:43;12.50;99.90
7117;DHT22;3600;48.568;7.870;2022-12-24T11:27:41;12.50;99.90
7117;DHT22;3600;48.568;7.870;2022-12-24T11:32:48;12.50;99.90
7117;DHT22;3600;48.568;7.870;2022-12-24T11:35:23;12.50;99.90
7117;DHT22;3600;48.568;7.870;2022-12-24T11:40:44;12.50;99.90
7117;DHT22;3600;48.568;7.870;2022-12-24T11:43:16;12.50;99.90
7117;DHT22;3600;48.568;7.870;2022-12-24T11:48:41;12.50;99.90
7117;DHT22;3600;48.568;7.870;2022-12-24T11:51:23;12.50;99.90
7117;DHT22;3600;48.568;7.870;2022-12-24T11:56:59;12.50;99.90
7117;DHT22;3600;48.568;7.870;2022-12-24T11:59:41;12.50;99.90
7117;DHT22;3600;48.568;7.870;2022-12-24T12:02:16;12.50;99.90
7117;DHT22;3600;48.568;7.870;2022-12-24T12:04:48;12.50;99.90
7117;DHT22;3600;48.568;7.870;2022-12-24T12:07:21;12.50;99.90
7117;DHT22;3600;48.568;7.870;2022-12-24T12:09:56;12.50;99.90
7117;DHT22;3600;48.568;7.870;2022-12-24T12:12:31;12.50;99.90
7117;DHT22;3600;48.568;7.870;2022-12-24T12:15:10;12.50;99.90
7117;DHT22;3600;48.568;7.870;2022-12-24T12:20:33;12.50;99.90
7117;DHT22;3600;48.568;7.870;2022-12-24T12:23:11;12.40;99.90
7117;DHT22;3600;48.568;7.870;2022-12-24T12:25:58;12.40;99.90
7117;DHT22;3600;48.568;7.870;2022-12-24T12:31:20;12.30;99.90
7117;DHT22;3600;48.568;7.870;2022-12-24T12:33:56;12.30;99.90
7117;DHT22;3600;48.568;7.870;2022-12-24T12:36:38;12.30;99.90
7117;DHT22;3600;48.568;7.870;2022-12-24T12:39:07;12.30;99.90
7117;DHT22;3600;48.568;7.870;2022-12-24T12:45:15;12.30;99.90
7117;DHT22;3600;48.568;7.870;2022-12-24T12:48:10;12.30;99.90
7117;DHT22;3600;48.568;7.870;2022-12-24T12:51:44;12.30;99.90
7117;DHT22;3600;48.568;7.870;2022-12-24T12:56:49;12.20;99.90
7117;DHT22;3600;48.568;7.870;2022-12-24T12:59:31;12.20;99.90
7117;DHT22;3600;48.568;7.870;2022-12-24T13:18:58;12.10;99.90
7117;DHT22;3600;48.568;7.870;2022-12-24T13:21:28;12.10;99.90
7117;DHT22;3600;48.568;7.870;2022-12-24T13:24:25;12.10;99.90
7117;DHT22;3600;48.568;7.870;2022-12-24T13:27:16;12.10;99.90
7117;DHT22;3600;48.568;7.870;2022-12-24T13:34:55;12.10;99.90
7117;DHT22;3600;48.568;7.870;2022-12-24T13:50:48;12.30;99.90
7117;DHT22;3600;48.568;7.870;2022-12-24T13:53:30;12.30;99.90
7117;DHT22;3600;48.568;7.870;2022-12-24T13:56:08;12.30;99.90
7117;DHT22;3600;48.568;7.870;2022-12-24T13:58:37;12.30;99.90
7117;DHT22;3600;48.568;7.870;2022-12-24T14:01:10;12.40;99.90
7117;DHT22;3600;48.568;7.870;2022-12-24T14:03:45;12.40;99.90
7117;DHT22;3600;48.568;7.870;2022-12-24T14:06:29;12.40;99.90
7117;DHT22;3600;48.568;7.870;2022-12-24T14:09:17;12.40;99.90
7117;DHT22;3600;48.568;7.870;2022-12-24T14:14:29;12.40;99.90
7117;DHT22;3600;48.568;7.870;2022-12-24T14:17:25;12.40;99.90
7117;DHT22;3600;48.568;7.870;2022-12-24T14:19:58;12.40;99.90
7117;DHT22;3600;48.568;7.870;2022-12-24T14:22:37;12.40;99.90
7117;DHT22;3600;48.568;7.870;2022-12-24T14:25:20;12.30;99.90
7117;DHT22;3600;48.568;7.870;2022-12-24T14:27:55;12.30;99.90
7117;DHT22;3600;48.568;7.870;2022-12-24T14:30:26;12.30;99.90
7117;DHT22;3600;48.568;7.870;2022-12-24T14:32:53;12.30;99.90
7117;DHT22;3600;48.568;7.870;2022-12-24T14:35:29;12.30;99.90
7117;DHT22;3600;48.568;7.870;2022-12-24T14:38:03;12.30;99.90
7117;DHT22;3600;48.568;7.870;2022-12-24T14:40:33;12.30;99.90
7117;DHT22;3600;48.568;7.870;2022-12-24T14:48:52;12.30;99.90
7117;DHT22;3600;48.568;7.870;2022-12-24T14:51:46;12.20;99.90
7117;DHT22;3600;48.568;7.870;2022-12-24T14:57:12;12.20;99.90
7117;DHT22;3600;48.568;7.870;2022-12-24T14:59:49;12.20;99.90
7117;DHT22;3600;48.568;7.870;2022-12-24T15:02:45;12.20;99.90
7117;DHT22;3600;48.568;7.870;2022-12-24T15:05:14;12.10;99.90
7117;DHT22;3600;48.568;7.870;2022-12-24T15:08:03;12.10;99.90
7117;DHT22;3600;48.568;7.870;2022-12-24T15:10:36;12.10;99.90
7117;DHT22;3600;48.568;7.870;2022-12-24T15:14:08;12.10;99.90
7117;DHT22;3600;48.568;7.870;2022-12-24T15:21:38;12.00;99.90
7117;DHT22;3600;48.568;7.870;2022-12-24T15:24:25;11.90;99.90
7117;DHT22;3600;48.568;7.870;2022-12-24T15:26:53;11.90;99.90
7117;DHT22;3600;48.568;7.870;2022-12-24T15:29:29;11.90;99.90
7117;DHT22;3600;48.568;7.870;2022-12-24T15:32:00;11.90;99.90
7117;DHT22;3600;48.568;7.870;2022-12-24T15:34:38;11.90;99.90
7117;DHT22;3600;48.568;7.870;2022-12-24T15:37:26;11.90;99.90
7117;DHT22;3600;48.568;7.870;2022-12-24T15:39:57;11.80;99.90
7117;DHT22;3600;48.568;7.870;2022-12-24T15:42:24;11.80;99.90
7117;DHT22;3600;48.568;7.870;2022-12-24T15:45:01;11.80;99.90
7117;DHT22;3600;48.568;7.870;2022-12-24T15:47:37;11.80;99.90
7117;DHT22;3600;48.568;7.870;2022-12-24T15:52:41;11.70;99.90
7117;DHT22;3600;48.568;7.870;2022-12-24T15:55:28;11.70;99.90
7117;DHT22;3600;48.568;7.870;2022-12-24T15:57:56;11.70;99.90
7117;DHT22;3600;48.568;7.870;2022-12-24T16:00:25;11.60;99.90
7117;DHT22;3600;48.568;7.870;2022-12-24T16:03:19;11.60;99.90
7117;DHT22;3600;48.568;7.870;2022-12-24T16:05:52;11.60;99.90
7117;DHT22;3600;48.568;7.870;2022-12-24T16:08:26;11.60;99.90
7117;DHT22;3600;48.568;7.870;2022-12-24T16:13:41;11.60;99.90
7117;DHT22;3600;48.568;7.870;2022-12-24T16:16:13;11.60;99.90
7117;DHT22;3600;48.568;7.870;2022-12-24T16:18:55;11.60;99.90
7117;DHT22;3600;48.568;7.870;2022-12-24T16:21:31;11.60;99.90
7117;DHT22;3600;48.568;7.870;2022-12-24T16:24:20;11.60;99.90
7117;DHT22;3600;48.568;7.870;2022-12-24T16:26:48;11.50;99.90
7117;DHT22;3600;48.568;7.870;2022-12-24T16:29:15;11.50;99.90
7117;DHT22;3600;48.568;7.870;2022-12-24T16:31:51;11.60;99.90
7117;DHT22;3600;48.568;7.870;2022-12-24T16:34:21;11.50;99.90
7117;DHT22;3600;48.568;7.870;2022-12-24T16:36:48;11.50;99.90
7117;DHT22;3600;48.568;7.870;2022-12-24T16:39:21;11.50;99.90
7117;DHT22;3600;48.568;7.870;2022-12-24T16:41:59;11.50;99.90
7117;DHT22;3600;48.568;7.870;2022-12-24T16:44:45;11.50;99.90
7117;DHT22;3600;48.568;7.870;2022-12-24T16:47:20;11.50;99.90
7117;DHT22;3600;48.568;7.870;2022-12-24T16:49:47;11.50;99.90
7117;DHT22;3600;48.568;7.870;2022-12-24T16:52:17;11.50;99.90
7117;DHT22;3600;48.568;7.870;2022-12-24T16:54:44;11.50;99.90
7117;DHT22;3600;48.568;7.870;2022-12-24T16:57:11;11.50;99.90
7117;DHT22;3600;48.568;7.870;2022-12-24T16:59:38;11.50;99.90
7117;DHT22;3600;48.568;7.870;2022-12-24T17:02:06;11.50;99.90
7117;DHT22;3600;48.568;7.870;2022-12-24T17:04:40;11.50;99.90
7117;DHT22;3600;48.568;7.870;2022-12-24T17:07:08;11.50;99.90
7117;DHT22;3600;48.568;7.870;2022-12-24T17:09:35;11.50;99.90
7117;DHT22;3600;48.568;7.870;2022-12-24T17:12:01;11.50;99.90
7117;DHT22;3600;48.568;7.870;2022-12-24T17:14:28;11.50;99.90
7117;DHT22;3600;48.568;7.870;2022-12-24T17:16:55;11.50;99.90
7117;DHT22;3600;48.568;7.870;2022-12-24T17:19:22;11.40;99.90
7117;DHT22;3600;48.568;7.870;2022-12-24T17:21:49;11.40;99.90
7117;DHT22;3600;48.568;7.870;2022-12-24T17:24:15;11.40;99.90
7117;DHT22;3600;48.568;7.870;2022-12-24T17:26:42;11.40;99.90
7117;DHT22;3600;48.568;7.870;2022-12-24T17:29:09;11.40;99.90
7117;DHT22;3600;48.568;7.870;2022-12-24T17:31:36;11.40;99.90
7117;DHT22;3600;48.568;7.870;2022-12-24T17:34:08;11.40;99.90
7117;DHT22;3600;48.568;7.870;2022-12-24T17:36:35;11.40;99.90
7117;DHT22;3600;48.568;7.870;2022-12-24T17:39:02;11.40;99.90
7117;DHT22;3600;48.568;7.870;2022-12-24T17:41:29;11.40;99.90
7117;DHT22;3600;48.568;7.870;2022-12-24T17:43:57;11.30;99.90
7117;DHT22;3600;48.568;7.870;2022-12-24T17:46:24;11.30;99.90
7117;DHT22;3600;48.568;7.870;2022-12-24T17:48:51;11.30;99.90
7117;DHT22;3600;48.568;7.870;2022-12-24T17:51:20;11.30;99.90
7117;DHT22;3600;48.568;7.870;2022-12-24T17:53:47;11.30;99.90
7117;DHT22;3600;48.568;7.870;2022-12-24T17:56:15;11.30;99.90
7117;DHT22;3600;48.568;7.870;2022-12-24T17:58:43;11.30;99.90
7117;DHT22;3600;48.568;7.870;2022-12-24T18:01:12;11.20;99.90
7117;DHT22;3600;48.568;7.870;2022-12-24T18:03:39;11.30;99.90
7117;DHT22;3600;48.568;7.870;2022-12-24T18:06:08;11.30;99.90
7117;DHT22;3600;48.568;7.870;2022-12-24T18:08:36;11.30;99.90
7117;DHT22;3600;48.568;7.870;2022-12-24T18:11:19;11.30;99.90
7117;DHT22;3600;48.568;7.870;2022-12-24T18:13:46;11.30;99.90
7117;DHT22;3600;48.568;7.870;2022-12-24T18:16:17;11.20;99.90
7117;DHT22;3600;48.568;7.870;2022-12-24T18:18:44;11.20;99.90
7117;DHT22;3600;48.568;7.870;2022-12-24T18:21:11;11.20;99.90
7117;DHT22;3600;48.568;7.870;2022-12-24T18:23:40;11.20;99.90
7117;DHT22;3600;48.568;7.870;2022-12-24T18:26:09;11.20;99.90
7117;DHT22;3600;48.568;7.870;2022-12-24T18:28:36;11.20;99.90
7117;DHT22;3600;48.568;7.870;2022-12-24T18:31:08;11.20;99.90
7117;DHT22;3600;48.568;7.870;2022-12-24T18:33:36;11.20;99.90
7117;DHT22;3600;48.568;7.870;2022-12-24T18:36:04;11.20;99.90
7117;DHT22;3600;48.568;7.870;2022-12-24T18:38:31;11.20;99.90